Time;durP1;ratioP1;P1;durP2;ratioP2;P2;SDS_P1;SDS_P2;PMS_P1;PMS_P2;Temp;Humidity;BMP_temperature;BMP_pressure;BME280_temperature;BME280_humidity;BME280_pressure;Samples;Min_cycle;Max_cycle;Signal;HPM_P1;HPM_P2
2023/02/21 02:14:47;;;;;;;0.70;0.50;;;;;;;4.60;92.19;96921.23;105625;1253;76136;-19
2023/02/21 02:17:37;;;;;;;0.30;0.30;;;;;;;5.31;90.49;96913.86;105769;1253;74436;-19
2023/02/21 02:20:39;;;;;;;0.30;0.30;;;;;;;5.74;88.47;96915.01;105622;1253;61929;-19
2023/02/21 02:23:27;;;;;;;1.50;0.70;;;;;;;5.57;88.89;96925.83;105542;1256;61902;-20
2023/02/21 02:25:59;;;;;;;1.70;0.90;;;;;;;5.29;90.16;96926.80;105547;1251;74665;-20
2023/02/21 02:29:05;;;;;;;1.40;0.90;;;;;;;5.03;90.81;96931.73;105580;1252;74983;-20
2023/02/21 02:31:41;;;;;;;1.10;0.90;;;;;;;4.82;92.50;96924.02;105886;1253;74305;-20
2023/02/21 02:34:19;;;;;;;2.30;1.00;;;;;;;4.73;93.43;96920.90;105579;1251;62974;-21
2023/02/21 02:36:55;;;;;;;0.40;0.40;;;;;;;5.28;92.88;96929.41;105518;1256;61784;-20
2023/02/21 02:39:55;;;;;;;0.80;0.80;;;;;;;5.78;90.23;96931.77;105467;1254;74488;-20
2023/02/21 02:42:43;;;;;;;2.00;0.90;;;;;;;5.70;89.20;96928.12;105553;1257;76614;-20
2023/02/21 02:45:25;;;;;;;1.20;0.70;;;;;;;5.41;89.46;96920.63;105523;1257;74410;-20
2023/02/21 02:47:57;;;;;;;2.90;1.20;;;;;;;5.16;90.88;96927.98;105519;1257;61864;-20
2023/02/21 02:50:29;;;;;;;2.10;1.50;;;;;;;4.94;91.67;96931.92;105566;1252;62038;-20
2023/02/21 02:53:00;;;;;;;1.50;0.90;;;;;;;4.76;92.46;96932.80;105563;1251;74695;-21
2023/02/21 02:55:45;;;;;;;0.80;0.60;;;;;;;5.19;92.73;96942.28;105556;1257;76205;-21
2023/02/21 02:58:14;;;;;;;1.00;0.90;;;;;;;5.73;90.90;96924.30;105690;1259;72292;-21
2023/02/21 03:00:47;;;;;;;1.40;1.10;;;;;;;5.76;90.55;96931.98;105721;1253;61674;-21
2023/02/21 03:03:34;;;;;;;1.00;0.80;;;;;;;5.58;90.76;96924.06;105712;1259;62256;-21
2023/02/21 03:06:09;;;;;;;2.70;1.30;;;;;;;5.27;89.43;96921.47;105871;1257;73874;-21
2023/02/21 03:09:02;;;;;;;1.50;1.00;;;;;;;5.07;89.02;96922.45;105941;1253;75692;-21
2023/02/21 03:11:31;;;;;;;1.00;0.70;;;;;;;4.88;88.72;96922.42;105662;1253;74006;-21
2023/02/21 03:14:11;;;;;;;0.80;0.70;;;;;;;4.81;88.70;96936.33;105663;1250;61441;-21
2023/02/21 03:16:43;;;;;;;0.40;0.40;;;;;;;5.38;88.72;96940.88;105510;1259;61631;-22
2023/02/21 03:19:36;;;;;;;2.00;0.50;;;;;;;5.83;85.18;96951.32;105622;1250;74990;-22
2023/02/21 03:22:16;;;;;;;2.20;0.80;;;;;;;5.78;83.76;96952.31;105773;1252;75840;-23
2023/02/21 03:24:45;;;;;;;1.10;0.80;;;;;;;5.50;84.44;96961.28;105623;1253;74235;-22
2023/02/21 03:27:16;;;;;;;0.90;0.60;;;;;;;5.21;83.87;96975.48;105561;1259;61225;-22
2023/02/21 03:29:53;;;;;;;2.40;0.70;;;;;;;4.98;84.12;96956.84;105835;1251;61704;-22
2023/02/21 03:34:56;;;;;;;0.90;0.60;;;;;;;4.70;83.82;96974.13;105555;1251;75373;-22
2023/02/21 03:37:37;;;;;;;0.40;0.30;;;;;;;5.19;83.92;96976.75;105730;1251;74178;-22
2023/02/21 03:40:09;;;;;;;0.90;0.70;;;;;;;5.65;82.30;96980.73;105678;1251;61881;-22
2023/02/21 03:42:38;;;;;;;1.20;0.50;;;;;;;5.44;83.19;96974.80;105615;1257;61781;-24
2023/02/21 03:45:07;;;;;;;0.70;0.50;;;;;;;5.15;85.30;96992.79;105690;1250;74588;-22
2023/02/21 03:47:36;;;;;;;1.90;0.90;;;;;;;4.90;86.18;96982.98;105554;1250;76149;-22
2023/02/21 03:50:06;;;;;;;0.50;0.50;;;;;;;4.77;87.70;96979.00;105623;1251;73414;-22
2023/02/21 03:52:35;;;;;;;3.50;0.80;;;;;;;4.55;88.54;96979.09;105683;1250;61148;-22
2023/02/21 03:55:05;;;;;;;3.10;1.00;;;;;;;4.40;88.89;96974.77;105641;1250;61167;-22
2023/02/21 03:57:33;;;;;;;1.90;0.70;;;;;;;4.36;89.84;96981.77;105422;1251;76330;-23
2023/02/21 04:00:03;;;;;;;2.00;0.60;;;;;;;4.74;87.68;96987.49;105864;1256;73940;-22
2023/02/21 04:02:42;;;;;;;2.00;0.40;;;;;;;5.17;85.16;96984.84;105814;1250;73985;-22
2023/02/21 04:05:20;;;;;;;2.50;0.80;;;;;;;5.04;85.07;96985.17;105655;1250;61733;-22
2023/02/21 04:07:48;;;;;;;1.50;0.80;;;;;;;4.84;85.60;96978.86;105732;1250;61151;-22
2023/02/21 04:10:17;;;;;;;2.50;0.90;;;;;;;4.70;86.55;96982.67;105789;1250;75293;-23
2023/02/21 04:12:46;;;;;;;1.00;0.70;;;;;;;4.46;87.52;96992.27;105924;1251;75507;-22
2023/02/21 04:15:18;;;;;;;1.60;0.80;;;;;;;4.31;88.18;96989.27;105628;1250;74476;-22
2023/02/21 04:17:48;;;;;;;2.20;0.80;;;;;;;4.26;88.59;96980.02;105725;1255;61183;-22
2023/02/21 04:20:16;;;;;;;0.60;0.60;;;;;;;4.17;88.45;96980.00;105644;1250;61102;-22
2023/02/21 04:22:53;;;;;;;0.60;0.40;;;;;;;4.66;86.53;96980.31;105708;1254;75130;-23
2023/02/21 04:25:31;;;;;;;3.40;0.80;;;;;;;4.95;84.25;96972.73;105754;1250;75856;-23
2023/02/21 04:28:04;;;;;;;1.70;0.70;;;;;;;4.84;83.36;96954.11;105721;1251;74230;-23
2023/02/21 04:30:33;;;;;;;2.20;0.60;;;;;;;4.74;84.05;96962.75;105650;1251;62040;-23
2023/02/21 04:40:38;;;;;;;1.10;0.70;;;;;;;4.28;85.60;96971.09;102616;1293;600107;-22
2023/02/21 04:43:08;;;;;;;1.10;0.90;;;;;;;4.15;85.99;96967.94;104876;1267;61130;-22
2023/02/21 04:45:38;;;;;;;0.60;0.50;;;;;;;4.15;86.80;96973.50;104909;1270;61807;-22
2023/02/21 04:48:06;;;;;;;0.50;0.40;;;;;;;4.63;85.57;96962.34;104893;1266;73901;-22
2023/02/21 04:50:38;;;;;;;3.00;0.60;;;;;;;4.93;83.73;96959.95;104846;1271;75946;-22
2023/02/21 05:00:52;;;;;;;4.60;0.80;;;;;;;4.69;85.82;96952.50;102516;1292;600492;-23
2023/02/21 05:03:20;;;;;;;1.70;0.80;;;;;;;4.47;86.99;96954.30;104951;1266;61979;-25
2023/02/21 05:05:50;;;;;;;1.00;0.70;;;;;;;4.35;87.50;96954.25;104869;1266;62329;-25
2023/02/21 05:08:18;;;;;;;0.70;0.50;;;;;;;4.32;88.01;96950.11;104749;1267;71823;-25
2023/02/21 05:10:48;;;;;;;1.40;0.50;;;;;;;4.84;86.97;96950.85;104884;1266;75997;-23
2023/02/21 05:13:16;;;;;;;3.30;0.50;;;;;;;5.26;84.67;96955.39;103646;1266;1807107;-26
2023/02/21 05:15:45;;;;;;;2.50;0.90;;;;;;;5.28;83.31;96937.48;104832;1262;61893;-25
2023/02/21 05:18:22;;;;;;;1.30;0.60;;;;;;;5.14;83.29;96949.14;105257;1263;61936;-23
2023/02/21 05:20:50;;;;;;;2.80;1.00;;;;;;;5.11;83.28;96967.64;105267;1260;72458;-24
2023/02/21 05:23:32;;;;;;;1.20;0.60;;;;;;;4.90;84.33;96965.64;105557;1260;75673;-23
2023/02/21 05:26:03;;;;;;;1.40;0.70;;;;;;;4.61;85.76;96966.81;105466;1260;74096;-25
2023/02/21 05:28:33;;;;;;;2.00;0.80;;;;;;;4.41;86.15;96953.73;105007;1260;61160;-25
2023/02/21 05:31:02;;;;;;;1.10;0.50;;;;;;;4.33;86.32;96954.19;105357;1262;61797;-24
2023/02/21 05:33:31;;;;;;;0.80;0.50;;;;;;;4.80;84.91;96957.05;105381;1262;74757;-24
2023/02/21 05:36:00;;;;;;;0.80;0.40;;;;;;;5.30;82.12;96962.65;105437;1262;74849;-24
2023/02/21 05:38:29;;;;;;;4.90;0.90;;;;;;;5.26;80.75;96961.81;105267;1259;74010;-24
2023/02/21 05:40:58;;;;;;;0.60;0.50;;;;;;;5.06;80.36;96959.83;105223;1264;61170;-24
2023/02/21 05:43:32;;;;;;;2.50;1.10;;;;;;;4.93;81.06;96965.01;105179;1264;62137;-24
2023/02/21 05:46:00;;;;;;;2.90;0.80;;;;;;;4.71;81.98;96968.16;105127;1261;73377;-26
2023/02/21 05:48:30;;;;;;;2.10;0.60;;;;;;;4.54;82.70;96965.77;105317;1260;75453;-26
2023/02/21 05:50:59;;;;;;;2.70;0.90;;;;;;;4.41;83.14;96960.03;105026;1263;74513;-26
2023/02/21 05:53:27;;;;;;;5.00;0.80;;;;;;;4.31;83.20;96965.17;105081;1260;61718;-24
2023/02/21 05:55:56;;;;;;;3.00;0.80;;;;;;;4.74;81.45;96953.59;105189;1261;62097;-24
2023/02/21 05:58:24;;;;;;;3.00;0.60;;;;;;;5.13;78.97;96964.69;105395;1260;74302;-25
2023/02/21 06:00:53;;;;;;;4.00;0.60;;;;;;;5.22;78.17;96963.25;105382;1260;75881;-24
2023/02/21 06:03:22;;;;;;;3.00;1.30;;;;;;;4.99;78.14;96957.60;105325;1260;73517;-24
2023/02/21 06:05:51;;;;;;;1.00;0.70;;;;;;;4.80;78.63;96977.20;105231;1265;61938;-25
2023/02/21 06:08:22;;;;;;;0.40;0.40;;;;;;;4.63;79.52;96969.20;105366;1260;61087;-25
2023/02/21 06:10:50;;;;;;;1.70;0.70;;;;;;;4.43;79.50;96963.92;105377;1260;72192;-25
2023/02/21 06:13:18;;;;;;;4.90;1.30;;;;;;;4.36;79.40;96954.43;105321;1259;75946;-25
2023/02/21 06:15:47;;;;;;;1.50;0.90;;;;;;;4.29;79.13;96964.51;105321;1259;74266;-25
2023/02/21 06:18:16;;;;;;;0.80;0.50;;;;;;;4.23;79.29;96958.64;105338;1259;61737;-25
2023/02/21 06:20:47;;;;;;;0.40;0.40;;;;;;;4.71;78.12;96978.43;105253;1263;62286;-25
2023/02/21 06:23:15;;;;;;;2.00;0.60;;;;;;;5.06;75.78;96959.32;105261;1261;73325;-25
2023/02/21 06:25:44;;;;;;;2.10;0.50;;;;;;;5.22;74.87;96962.73;105145;1265;75987;-25
2023/02/21 06:28:13;;;;;;;3.20;0.50;;;;;;;5.11;74.98;96972.27;105079;1260;73190;-25
2023/02/21 06:30:41;;;;;;;3.70;1.20;;;;;;;4.94;75.35;96960.98;105192;1259;61926;-25
2023/02/21 06:33:12;;;;;;;0.60;0.50;;;;;;;4.79;75.48;96957.63;105272;1265;61947;-25
2023/02/21 06:35:40;;;;;;;2.40;0.70;;;;;;;4.68;75.46;96968.41;105295;1259;74889;-25
2023/02/21 06:38:09;;;;;;;2.80;0.60;;;;;;;4.60;75.61;96963.34;105366;1264;76148;-25
2023/02/21 06:40:38;;;;;;;3.00;0.50;;;;;;;4.49;75.40;96959.70;105291;1260;74265;-25
2023/02/21 06:43:06;;;;;;;3.60;0.70;;;;;;;4.43;74.81;96973.55;105076;1259;61063;-25
2023/02/21 06:45:35;;;;;;;0.30;0.30;;;;;;;4.44;74.21;96976.06;105193;1260;61686;-25
2023/02/21 06:48:06;;;;;;;1.90;0.30;;;;;;;4.91;72.97;96987.86;105266;1259;75262;-25
2023/02/21 06:50:35;;;;;;;1.00;0.30;;;;;;;5.38;70.78;96982.02;105246;1259;76522;-25
2023/02/21 06:53:03;;;;;;;1.20;0.40;;;;;;;5.36;69.85;96969.67;105217;1259;74182;-25
2023/02/21 06:55:33;;;;;;;1.40;0.90;;;;;;;5.28;70.20;96984.20;105184;1259;61689;-25
2023/02/21 06:58:02;;;;;;;4.90;1.00;;;;;;;5.12;71.26;96993.50;105295;1264;62546;-25
2023/02/21 07:00:31;;;;;;;3.00;0.80;;;;;;;4.91;72.02;96988.85;105356;1259;74526;-25
2023/02/21 07:02:59;;;;;;;2.20;0.70;;;;;;;4.80;72.57;96993.11;105255;1261;75848;-25
2023/02/21 07:05:33;;;;;;;3.50;0.40;;;;;;;4.67;72.27;96976.77;105269;1261;74519;-25
2023/02/21 07:08:01;;;;;;;4.40;0.90;;;;;;;4.61;72.67;96975.29;105112;1259;61121;-25
2023/02/21 07:10:31;;;;;;;1.60;0.70;;;;;;;4.43;73.36;96974.76;105351;1260;61625;-25
2023/02/21 07:13:01;;;;;;;4.00;0.70;;;;;;;4.46;73.24;96967.68;105287;1259;74897;-25
2023/02/21 07:15:29;;;;;;;2.60;0.30;;;;;;;5.00;71.75;96978.44;105084;1259;75685;-25
2023/02/21 07:17:59;;;;;;;1.50;0.60;;;;;;;5.42;68.80;96953.80;105277;1259;73228;-25
2023/02/21 07:20:27;;;;;;;2.60;0.70;;;;;;;5.52;67.90;96987.30;105151;1259;62145;-25
2023/02/21 07:22:56;;;;;;;2.70;0.80;;;;;;;5.35;67.97;96964.56;105091;1265;61635;-25
2023/02/21 07:25:24;;;;;;;2.10;0.60;;;;;;;5.15;68.38;96980.54;105082;1259;74544;-25
2023/02/21 07:27:52;;;;;;;4.00;1.20;;;;;;;5.05;68.89;96970.25;105084;1259;74627;-24
2023/02/21 07:30:21;;;;;;;2.20;0.70;;;;;;;4.83;69.57;96931.73;105053;1259;74405;-25
2023/02/21 07:32:49;;;;;;;2.90;0.90;;;;;;;4.72;69.98;96956.40;105152;1259;61061;-25
2023/02/21 07:35:18;;;;;;;3.80;0.90;;;;;;;4.60;70.83;96965.19;105067;1266;61810;-25
2023/02/21 07:37:47;;;;;;;4.00;1.10;;;;;;;4.80;69.45;96953.45;105168;1260;74597;-25
2023/02/21 07:40:16;;;;;;;3.60;0.90;;;;;;;5.15;68.68;96951.97;105243;1260;75885;-25
2023/02/21 07:42:46;;;;;;;2.70;0.60;;;;;;;5.30;67.92;96947.17;105051;1265;74236;-25
2023/02/21 07:45:15;;;;;;;3.10;0.90;;;;;;;5.21;68.85;96964.30;105057;1260;61961;-25
2023/02/21 07:47:44;;;;;;;3.00;0.60;;;;;;;5.12;69.65;96955.20;105095;1261;62488;-25
2023/02/21 07:50:18;;;;;;;2.70;1.00;;;;;;;5.02;70.52;96960.59;105042;1259;74581;-25
2023/02/21 07:52:47;;;;;;;3.00;1.00;;;;;;;4.87;70.09;96955.03;105097;1264;75816;-25
2023/02/21 07:55:15;;;;;;;3.20;1.10;;;;;;;4.83;71.13;96954.56;105373;1259;74282;-25
2023/02/21 07:57:45;;;;;;;4.50;0.80;;;;;;;4.82;71.14;96953.45;105065;1265;62754;-25
2023/02/21 08:00:14;;;;;;;2.90;0.90;;;;;;;5.07;70.85;96945.66;105142;1260;61684;-25
2023/02/21 08:02:49;;;;;;;2.20;0.90;;;;;;;5.18;70.44;96973.20;105037;1260;72876;-25
2023/02/21 08:05:18;;;;;;;2.40;0.80;;;;;;;5.03;70.43;96954.62;105259;1259;76303;-25
2023/02/21 08:07:47;;;;;;;5.30;1.40;;;;;;;5.08;71.64;96961.89;105302;1264;73151;-25
2023/02/21 08:10:22;;;;;;;2.30;0.90;;;;;;;5.12;71.85;96965.27;105176;1259;61138;-25
2023/02/21 08:12:53;;;;;;;1.40;1.00;;;;;;;5.05;72.29;96962.52;104872;1259;61878;-25
2023/02/21 08:15:22;;;;;;;2.80;1.00;;;;;;;5.09;72.57;96969.37;105150;1259;74550;-25
2023/02/21 08:17:50;;;;;;;1.80;0.80;;;;;;;5.53;71.52;96966.73;105041;1259;76103;-25
2023/02/21 08:20:19;;;;;;;9.40;1.20;;;;;;;5.55;70.67;96953.75;105309;1262;74020;-26
2023/02/21 08:22:48;;;;;;;1.60;0.90;;;;;;;5.59;70.14;96948.98;105349;1257;61057;-26
2023/02/21 08:25:18;;;;;;;2.60;0.60;;;;;;;5.52;70.61;96954.72;105314;1262;62002;-25
2023/02/21 08:27:52;;;;;;;2.00;0.70;;;;;;;5.44;71.28;96958.73;105259;1259;74595;-25
2023/02/21 08:30:21;;;;;;;1.20;0.60;;;;;;;5.31;71.53;96957.51;105557;1260;75916;-25
2023/02/21 08:32:50;;;;;;;2.10;1.00;;;;;;;5.35;72.53;96975.96;105364;1256;74156;-25
2023/02/21 08:35:18;;;;;;;4.50;1.50;;;;;;;5.51;72.03;96967.77;105506;1260;61699;-24
2023/02/21 08:37:49;;;;;;;2.80;1.00;;;;;;;5.76;70.88;96969.36;105239;1259;62254;-26
2023/02/21 08:40:18;;;;;;;1.10;0.70;;;;;;;5.81;70.69;96959.44;105523;1262;74289;-25
2023/02/21 08:42:49;;;;;;;2.40;0.90;;;;;;;5.96;70.11;96963.23;105267;1259;74789;-25
2023/02/21 08:45:19;;;;;;;4.20;0.90;;;;;;;5.92;71.05;96971.11;105261;1265;75092;-26
2023/02/21 08:47:49;;;;;;;3.20;1.10;;;;;;;5.86;70.12;96949.86;105168;1257;61071;-25
2023/02/21 08:50:18;;;;;;;3.30;0.90;;;;;;;5.69;70.53;96938.73;105311;1257;61116;-25
2023/02/21 08:52:48;;;;;;;2.70;0.70;;;;;;;5.65;70.91;96963.19;104968;1262;74090;-25
2023/02/21 08:55:16;;;;;;;2.90;1.00;;;;;;;5.63;71.91;96984.21;105133;1262;76473;-26
2023/02/21 08:57:49;;;;;;;1.50;1.30;;;;;;;5.56;70.87;96962.67;105224;1259;74657;-25
2023/02/21 09:00:22;;;;;;;2.40;1.00;;;;;;;5.89;70.88;96980.87;104939;1260;62184;-26
2023/02/21 09:02:50;;;;;;;3.00;0.90;;;;;;;5.74;69.17;96942.50;105116;1260;61077;-25
2023/02/21 09:05:23;;;;;;;1.70;0.80;;;;;;;5.62;69.53;96975.64;105247;1259;74809;-25
2023/02/21 09:07:54;;;;;;;1.20;0.70;;;;;;;5.64;70.64;96985.70;105095;1260;75294;-25
2023/02/21 09:22:54;;;;;;;2.80;1.10;;;;;;;5.88;70.66;96988.64;104947;1265;75134;-24
2023/02/21 09:25:23;;;;;;;2.10;0.80;;;;;;;6.05;67.82;96963.20;104953;1268;76070;-24
2023/02/21 09:28:01;;;;;;;6.00;1.10;;;;;;;6.14;68.18;96974.92;105067;1265;74222;-24
2023/02/21 09:30:30;;;;;;;4.10;1.00;;;;;;;6.12;66.69;96952.39;104931;1270;61924;-25
2023/02/21 09:33:00;;;;;;;3.00;1.00;;;;;;;5.80;68.03;96975.76;105176;1267;61571;-25
2023/02/21 09:35:32;;;;;;;3.90;0.90;;;;;;;5.76;68.50;96985.05;105177;1265;75016;-24
2023/02/21 09:38:08;;;;;;;3.20;1.10;;;;;;;5.74;69.26;96983.84;105126;1266;75849;-24
2023/02/21 09:40:38;;;;;;;2.10;1.10;;;;;;;5.66;69.16;96989.08;104859;1265;74079;-24
2023/02/21 09:43:14;;;;;;;3.70;1.20;;;;;;;5.78;68.76;96993.33;105050;1268;62040;-25
2023/02/21 09:45:43;;;;;;;7.80;1.30;;;;;;;5.76;67.86;96979.36;104885;1266;61155;-25
2023/02/21 09:48:16;;;;;;;3.70;1.80;;;;;;;5.56;67.08;96983.29;105156;1266;75380;-25
2023/02/21 09:50:47;;;;;;;2.00;0.90;;;;;;;5.41;68.15;96979.67;104893;1265;75766;-25
2023/02/21 09:53:23;;;;;;;2.80;0.80;;;;;;;5.34;69.73;97010.48;104539;1266;73158;-25
2023/02/21 09:55:54;;;;;;;5.00;1.20;;;;;;;5.41;69.95;97006.48;104715;1265;63109;-25
2023/02/21 09:58:23;;;;;;;3.10;1.00;;;;;;;5.20;73.00;96986.98;104774;1260;62142;-23
2023/02/21 10:00:51;;;;;;;3.10;1.20;;;;;;;3.86;82.20;97014.92;105212;1259;75342;-22
2023/02/21 10:03:44;;;;;;;3.70;1.30;;;;;;;3.43;86.58;97040.38;105154;1259;74450;-21
2023/02/21 10:06:21;;;;;;;2.70;1.30;;;;;;;3.75;88.65;97057.25;105351;1262;74209;-21
2023/02/21 10:09:16;;;;;;;3.60;1.10;;;;;;;4.18;87.38;97058.55;105447;1259;62422;-21
2023/02/21 10:12:42;;;;;;;5.30;1.20;;;;;;;4.46;85.04;97042.56;105481;1262;61873;-21
2023/02/21 10:15:11;;;;;;;;;;;;;;;4.36;84.46;97054.61;105645;1256;75208;-21
2023/02/21 10:17:50;;;;;;;7.60;1.10;;;;;;;4.45;83.74;97050.17;105350;1262;75797;-21
2023/02/21 10:20:29;;;;;;;4.20;1.10;;;;;;;4.69;80.69;97026.29;105275;1262;74339;-22
2023/02/21 10:22:57;;;;;;;2.80;0.90;;;;;;;4.98;79.04;97033.81;104949;1265;61125;-22
2023/02/21 10:25:29;;;;;;;4.20;1.50;;;;;;;5.10;77.45;97028.46;105119;1262;61627;-22
2023/02/21 10:27:58;;;;;;;6.70;1.90;;;;;;;5.20;77.89;97041.63;105123;1263;75459;-21
2023/02/21 10:30:36;;;;;;;6.20;0.90;;;;;;;5.03;76.08;97018.79;105126;1263;74712;-22
2023/02/21 10:33:05;;;;;;;4.10;1.50;;;;;;;5.22;75.19;97005.83;105240;1263;74025;-22
2023/02/21 10:35:34;;;;;;;4.50;1.60;;;;;;;5.55;74.55;97031.91;105212;1256;60993;-22
2023/02/21 10:38:06;;;;;;;5.90;1.30;;;;;;;5.59;72.29;97030.52;105162;1259;61106;-22
2023/02/21 10:40:37;;;;;;;3.70;1.50;;;;;;;5.53;72.22;97019.73;105205;1264;75644;-22
2023/02/21 10:43:18;;;;;;;5.90;1.20;;;;;;;5.49;71.79;97009.79;105395;1256;75598;-22
2023/02/21 10:45:55;;;;;;;4.30;1.40;;;;;;;5.48;72.77;97029.66;105354;1263;75074;-22
2023/02/21 10:48:27;;;;;;;1.70;1.10;;;;;;;5.40;73.20;97046.32;105322;1263;61394;-22
2023/02/21 10:51:06;;;;;;;4.20;1.70;;;;;;;5.42;72.86;97022.91;105248;1265;61881;-22
2023/02/21 10:53:46;;;;;;;5.80;1.30;;;;;;;5.43;70.73;97006.50;105374;1257;74834;-23
2023/02/21 10:56:15;;;;;;;3.60;1.40;;;;;;;5.40;70.18;97020.02;105287;1264;75545;-23
2023/02/21 10:59:05;;;;;;;4.00;1.50;;;;;;;5.79;69.40;97014.85;105570;1262;74051;-23
2023/02/21 11:01:42;;;;;;;4.10;1.70;;;;;;;6.01;67.78;97036.08;105596;1257;61035;-23
2023/02/21 11:04:19;;;;;;;2.90;1.30;;;;;;;6.18;67.74;97036.23;105499;1262;61747;-23
2023/02/21 11:06:54;;;;;;;5.30;1.80;;;;;;;6.60;66.62;97023.26;105569;1260;75180;-23
2023/02/21 11:09:26;;;;;;;2.20;1.00;;;;;;;6.79;63.41;96972.14;105238;1258;74868;-23
2023/02/21 11:12:28;;;;;;;3.60;1.40;;;;;;;6.73;63.16;97006.64;105356;1262;73267;-24
2023/02/21 11:14:58;;;;;;;3.00;1.30;;;;;;;6.68;61.34;96986.77;105458;1257;62117;-23
2023/02/21 11:17:27;;;;;;;5.40;1.20;;;;;;;6.65;61.36;96989.03;105427;1262;61901;-24
2023/02/21 11:20:04;;;;;;;3.50;1.00;;;;;;;6.55;61.17;96992.55;105395;1259;75303;-23
2023/02/21 11:22:33;;;;;;;2.80;1.40;;;;;;;6.30;63.04;97017.83;105207;1260;76409;-23
2023/02/21 11:25:23;;;;;;;4.50;1.40;;;;;;;6.19;62.03;97008.76;105199;1262;74247;-24
2023/02/21 11:28:04;;;;;;;7.00;1.20;;;;;;;6.16;63.93;97038.69;105204;1263;61096;-24
2023/02/21 11:30:36;;;;;;;2.60;1.00;;;;;;;5.96;64.75;97031.56;105291;1262;62416;-24
2023/02/21 11:33:06;;;;;;;4.00;1.40;;;;;;;5.81;64.81;97063.98;105087;1265;75325;-24
2023/02/21 11:35:45;;;;;;;3.10;1.20;;;;;;;5.76;63.86;97083.04;105204;1260;75809;-24
2023/02/21 11:38:31;;;;;;;4.80;1.30;;;;;;;5.61;64.99;97092.50;105305;1257;74112;-25
2023/02/21 11:40:59;;;;;;;6.90;1.70;;;;;;;5.18;67.68;97137.84;105360;1259;61090;-25
2023/02/21 11:43:30;;;;;;;4.30;1.00;;;;;;;4.75;70.27;97137.66;105299;1260;61741;-25
2023/02/21 11:46:12;;;;;;;4.60;1.20;;;;;;;4.60;71.30;97109.94;105362;1260;75636;-25
2023/02/21 11:48:46;;;;;;;3.20;1.20;;;;;;;4.72;72.53;97128.10;105152;1266;75847;-24
2023/02/21 11:51:26;;;;;;;3.10;1.10;;;;;;;4.30;75.97;97160.20;105540;1257;74185;-24
2023/02/21 11:53:54;;;;;;;3.40;1.00;;;;;;;4.03;76.23;97132.45;105326;1262;61220;-24
2023/02/21 11:56:34;;;;;;;3.30;1.10;;;;;;;4.19;75.42;97124.42;105459;1262;62093;-24
2023/02/21 11:59:12;;;;;;;4.30;0.90;;;;;;;4.44;74.67;97137.08;105297;1263;75689;-25
2023/02/21 12:01:49;;;;;;;4.50;1.20;;;;;;;5.08;73.03;97139.60;105236;1262;73968;-25
2023/02/21 12:04:41;;;;;;;5.10;1.40;;;;;;;5.40;69.66;97137.92;105102;1257;74446;-26
2023/02/21 12:07:19;;;;;;;3.20;1.00;;;;;;;5.55;68.65;97146.36;105161;1263;62060;-26
2023/02/21 12:09:57;;;;;;;3.60;1.20;;;;;;;5.56;67.62;97144.46;105434;1264;61762;-26
2023/02/21 12:12:47;;;;;;;3.30;0.90;;;;;;;5.14;68.78;97104.66;105482;1260;75158;-27
2023/02/21 12:15:22;;;;;;;2.40;0.90;;;;;;;4.50;74.19;97121.78;105372;1267;76227;-26
2023/02/21 12:18:03;;;;;;;4.10;1.20;;;;;;;4.28;76.47;97150.96;104907;1263;74149;-27
2023/02/21 12:20:41;;;;;;;3.10;0.80;;;;;;;4.32;76.56;97170.94;104948;1262;61341;-27
2023/02/21 12:23:28;;;;;;;3.50;1.40;;;;;;;4.46;74.30;97139.69;105129;1262;61880;-27
2023/02/21 12:26:35;;;;;;;3.10;1.00;;;;;;;4.82;73.00;97164.90;105330;1259;75395;-27
2023/02/21 12:29:20;;;;;;;4.90;1.00;;;;;;;5.04;71.24;97178.09;104881;1264;74861;-27
2023/02/21 12:32:01;;;;;;;2.70;1.10;;;;;;;4.97;69.84;97147.30;104902;1266;73095;-27
2023/02/21 12:34:33;;;;;;;3.60;1.10;;;;;;;5.00;69.65;97161.81;104716;1270;61122;-27
2023/02/21 12:37:30;;;;;;;3.40;1.20;;;;;;;5.05;70.35;97158.25;104770;1268;62182;-26
2023/02/21 12:40:13;;;;;;;2.20;0.90;;;;;;;5.45;68.85;97154.54;104756;1266;75537;-26
2023/02/21 12:43:09;;;;;;;4.20;0.90;;;;;;;5.68;69.81;97181.50;104750;1268;76175;-26
2023/02/21 12:45:48;;;;;;;4.00;1.20;;;;;;;5.82;68.99;97158.92;104811;1267;73158;-26
2023/02/21 12:48:37;;;;;;;3.60;1.10;;;;;;;5.92;68.76;97170.80;104728;1269;61192;-25
2023/02/21 12:51:08;;;;;;;9.00;1.50;;;;;;;5.99;68.83;97183.54;104800;1268;61428;-25
2023/02/21 12:53:49;;;;;;;3.60;1.20;;;;;;;5.80;68.33;97195.45;104800;1269;75668;-25
2023/02/21 12:56:25;;;;;;;5.00;1.00;;;;;;;5.65;67.61;97190.92;104969;1264;75920;-25
2023/02/21 12:59:20;;;;;;;1.40;0.80;;;;;;;5.63;68.03;97191.14;104838;1268;72499;-25
2023/02/21 13:02:08;;;;;;;3.70;0.60;;;;;;;5.64;68.71;97186.16;105076;1264;61387;-25
2023/02/21 13:04:46;;;;;;;1.80;0.80;;;;;;;6.13;65.24;97191.21;105443;1262;62151;-25
2023/02/21 13:07:26;;;;;;;2.20;1.20;;;;;;;6.39;63.51;97175.56;105311;1264;74346;-25
2023/02/21 13:10:11;;;;;;;1.50;0.80;;;;;;;6.39;62.70;97199.22;105393;1266;75831;-26
2023/02/21 13:12:45;;;;;;;4.20;1.00;;;;;;;6.23;61.82;97169.53;104895;1258;74287;-25
2023/02/21 13:15:33;;;;;;;2.10;1.10;;;;;;;6.09;62.95;97188.14;105084;1263;61583;-25
2023/02/21 13:18:15;;;;;;;6.20;1.50;;;;;;;6.12;64.28;97215.25;105093;1263;62210;-25
2023/02/21 13:20:59;;;;;;;5.80;1.30;;;;;;;6.16;65.11;97210.16;105102;1265;74676;-25
2023/02/21 13:26:46;;;;;;;6.30;1.30;;;;;;;5.67;66.65;97206.61;105188;1259;74248;-25
2023/02/21 13:29:27;;;;;;;5.60;1.40;;;;;;;5.49;66.72;97189.74;105090;1257;61875;-26
2023/02/21 13:32:10;;;;;;;4.00;1.40;;;;;;;5.28;67.86;97197.89;104944;1263;62207;-26
2023/02/21 13:34:41;;;;;;;6.50;1.70;;;;;;;5.02;69.61;97219.09;105131;1258;74145;-26
2023/02/21 13:37:16;;;;;;;4.90;1.20;;;;;;;5.13;69.28;97228.57;105080;1263;74988;-25
2023/02/21 13:39:50;;;;;;;4.60;1.50;;;;;;;5.61;69.27;97251.56;105056;1263;74187;-26
2023/02/21 13:42:23;;;;;;;5.40;1.60;;;;;;;5.59;67.67;97231.79;105141;1262;61197;-25
2023/02/21 13:45:12;;;;;;;5.60;1.30;;;;;;;5.53;68.36;97237.60;105074;1262;61123;-25
2023/02/21 13:47:56;;;;;;;3.90;1.20;;;;;;;5.75;67.85;97231.54;105283;1262;75395;-25
2023/02/21 13:50:40;;;;;;;3.10;1.20;;;;;;;5.82;66.87;97234.17;105262;1263;75241;-25
2023/02/21 13:53:26;;;;;;;5.30;1.40;;;;;;;5.74;66.36;97244.92;105594;1260;73296;-26
2023/02/21 13:56:06;;;;;;;5.70;1.60;;;;;;;5.57;66.66;97228.52;105465;1256;61414;-25
2023/02/21 13:58:43;;;;;;;8.70;2.30;;;;;;;5.49;67.37;97259.16;105583;1262;61620;-25
2023/02/21 14:01:27;;;;;;;4.40;1.80;;;;;;;5.41;66.80;97256.60;105269;1263;75398;-25
2023/02/21 14:03:57;;;;;;;6.70;2.00;;;;;;;5.42;67.55;97257.91;105146;1263;76010;-26
2023/02/21 14:06:36;;;;;;;3.90;1.30;;;;;;;5.40;66.81;97267.17;105212;1258;74312;-25
2023/02/21 14:09:06;;;;;;;5.40;1.40;;;;;;;5.37;67.58;97274.13;105263;1262;61188;-25
2023/02/21 14:11:47;;;;;;;4.80;1.50;;;;;;;5.68;66.58;97281.54;105283;1258;61090;-25
2023/02/21 14:14:38;;;;;;;3.80;1.10;;;;;;;5.80;65.08;97247.95;105195;1258;75448;-26
2023/02/21 14:17:11;;;;;;;4.20;1.10;;;;;;;5.76;65.36;97260.03;105180;1261;76118;-25
2023/02/21 14:19:42;;;;;;;6.80;1.80;;;;;;;5.60;66.34;97281.77;105340;1263;74166;-25
2023/02/21 14:22:23;;;;;;;6.20;1.40;;;;;;;5.50;66.36;97279.84;105320;1263;61185;-25
2023/02/21 14:25:02;;;;;;;4.10;1.40;;;;;;;5.37;66.63;97282.39;105222;1262;61808;-25
2023/02/21 14:27:33;;;;;;;5.20;1.40;;;;;;;5.29;66.17;97256.97;105213;1258;75670;-26
2023/02/21 14:30:09;;;;;;;5.40;1.10;;;;;;;5.30;66.52;97276.48;105320;1257;74707;-25
2023/02/21 14:32:50;;;;;;;4.30;1.30;;;;;;;5.31;66.50;97282.45;105536;1262;74219;-26
2023/02/21 14:35:23;;;;;;;2.80;1.00;;;;;;;5.26;66.49;97288.72;105234;1256;61057;-25
2023/02/21 14:37:54;;;;;;;5.10;1.00;;;;;;;5.24;66.91;97301.63;105266;1257;61591;-25
2023/02/21 14:40:32;;;;;;;5.40;1.10;;;;;;;5.22;66.94;97306.45;105162;1258;75165;-25
2023/02/21 14:51:03;;;;;;;7.20;1.30;;;;;;;5.83;65.02;97314.83;102636;1294;600528;-27
2023/02/21 14:54:00;;;;;;;4.80;1.20;;;;;;;5.64;65.59;97300.58;104888;1267;61944;-25
2023/02/21 14:56:45;;;;;;;5.20;1.00;;;;;;;5.57;65.95;97320.74;105056;1267;61737;-26
2023/02/21 14:59:30;;;;;;;8.20;1.50;;;;;;;5.38;67.77;97335.66;104805;1267;73968;-27
2023/02/21 15:02:06;;;;;;;4.40;1.60;;;;;;;5.23;68.08;97322.00;104892;1267;75722;-27
2023/02/21 15:04:42;;;;;;;4.00;1.30;;;;;;;5.24;68.25;97331.04;103583;1270;1830576;-27